Hlavní strana
METAR-TAF:

METAR-TAF

Letiště :

Monticello, Kentucky, Spojené státy americké

zeměpisná šířka: 36-51-19N, zeměpisná délka: 084-51-22W, výška: 294 m

Aktuální stav počasí

Zpráva byla vytvořena před 54 minutami, v 07:56 UTC
Bezvětří
Teplota -3°C
Vlhkost vzduchu 100%
Tlak 1025 hPa
Viditelnost: 16.1 km
Jasno

METAR: KEKQ 080756Z AUTO 00000KT 10SM CLR M03/M03 A3026 RMK AO2 SLP250 T10281033 PWINO FZRANO $

Čas: 03:50 (08:50 UTC)


TAF: chybějící

Stav a předpovědi počasí z více než 4 000 letišť (zprávy METAR a TAF).

Červené a žluté tečky na mapě představují dostupné meteorologické stanice.

Když kurzor umístíte na tečku, zobrazí se název stanice.

Pak kliknutím zobrazíte stav a předpověď počasí.

Chcete-li změnit mapu, kliknutím na zelené tlačítko se znaménkem +mapu přiblížíte, kliknutím na zelené tlačítko se znaménkem – mapu oddálíte a kliknutím na zelené šipky přejdete na sousední mapy.


METAR-TAF: